sensor_id;sensor_type;location;lat;lon;timestamp;P1;durP1;ratioP1;P2;durP2;ratioP2
73678;SDS011;61978;52.742;16.962;2022-09-14T00:01:26;170.82;;;48.08;;
73678;SDS011;61978;52.742;16.962;2022-09-14T00:04:03;151.93;;;47.35;;
73678;SDS011;61978;52.742;16.962;2022-09-14T00:06:29;177.72;;;48.92;;
73678;SDS011;61978;52.742;16.962;2022-09-14T00:08:57;166.35;;;49.73;;
73678;SDS011;61978;52.742;16.962;2022-09-14T00:11:26;145.60;;;40.85;;
73678;SDS011;61978;52.742;16.962;2022-09-14T00:13:55;142.80;;;44.40;;
73678;SDS011;61978;52.742;16.962;2022-09-14T00:16:24;151.20;;;49.08;;
73678;SDS011;61978;52.742;16.962;2022-09-14T00:18:53;135.97;;;43.58;;
73678;SDS011;61978;52.742;16.962;2022-09-14T00:21:22;157.62;;;49.20;;
73678;SDS011;61978;52.742;16.962;2022-09-14T00:23:49;131.12;;;44.53;;
73678;SDS011;61978;52.742;16.962;2022-09-14T00:26:19;118.35;;;40.55;;
73678;SDS011;61978;52.742;16.962;2022-09-14T00:28:46;120.47;;;41.15;;
73678;SDS011;61978;52.742;16.962;2022-09-14T00:31:15;131.55;;;43.68;;
73678;SDS011;61978;52.742;16.962;2022-09-14T00:33:43;117.30;;;43.08;;
73678;SDS011;61978;52.742;16.962;2022-09-14T00:36:13;117.97;;;38.20;;
73678;SDS011;61978;52.742;16.962;2022-09-14T00:38:41;93.25;;;36.85;;
73678;SDS011;61978;52.742;16.962;2022-09-14T00:41:11;106.05;;;36.40;;
73678;SDS011;61978;52.742;16.962;2022-09-14T00:46:28;87.80;;;34.15;;
73678;SDS011;61978;52.742;16.962;2022-09-14T00:48:58;86.92;;;33.13;;
73678;SDS011;61978;52.742;16.962;2022-09-14T00:51:27;87.00;;;34.80;;
73678;SDS011;61978;52.742;16.962;2022-09-14T00:53:59;88.27;;;32.42;;
73678;SDS011;61978;52.742;16.962;2022-09-14T00:56:29;85.70;;;33.50;;
73678;SDS011;61978;52.742;16.962;2022-09-14T00:58:56;79.42;;;31.73;;
73678;SDS011;61978;52.742;16.962;2022-09-14T01:01:25;69.30;;;30.20;;
73678;SDS011;61978;52.742;16.962;2022-09-14T01:03:51;69.30;;;29.85;;
73678;SDS011;61978;52.742;16.962;2022-09-14T01:17:38;61.13;;;28.95;;
73678;SDS011;61978;52.742;16.962;2022-09-14T01:21:00;69.07;;;29.77;;
73678;SDS011;61978;52.742;16.962;2022-09-14T01:28:07;66.92;;;29.65;;
73678;SDS011;61978;52.742;16.962;2022-09-14T01:30:37;61.23;;;28.95;;
73678;SDS011;61978;52.742;16.962;2022-09-14T01:33:14;54.67;;;27.32;;
73678;SDS011;61978;52.742;16.962;2022-09-14T01:35:45;53.30;;;28.05;;
73678;SDS011;61978;52.742;16.962;2022-09-14T01:38:16;52.70;;;26.90;;
73678;SDS011;61978;52.742;16.962;2022-09-14T01:40:46;51.53;;;25.13;;
73678;SDS011;61978;52.742;16.962;2022-09-14T01:43:37;50.20;;;24.60;;
73678;SDS011;61978;52.742;16.962;2022-09-14T01:45:55;49.88;;;25.70;;
73678;SDS011;61978;52.742;16.962;2022-09-14T01:48:29;46.00;;;24.02;;
73678;SDS011;61978;52.742;16.962;2022-09-14T01:51:14;47.73;;;23.80;;
73678;SDS011;61978;52.742;16.962;2022-09-14T01:53:51;43.63;;;22.45;;
73678;SDS011;61978;52.742;16.962;2022-09-14T01:56:23;45.03;;;23.20;;
73678;SDS011;61978;52.742;16.962;2022-09-14T01:59:11;42.62;;;22.58;;
73678;SDS011;61978;52.742;16.962;2022-09-14T02:01:45;50.50;;;24.57;;
73678;SDS011;61978;52.742;16.962;2022-09-14T02:04:18;46.53;;;24.52;;
73678;SDS011;61978;52.742;16.962;2022-09-14T02:06:46;46.42;;;24.63;;
73678;SDS011;61978;52.742;16.962;2022-09-14T02:09:18;49.55;;;24.35;;
73678;SDS011;61978;52.742;16.962;2022-09-14T02:11:44;50.12;;;24.37;;
73678;SDS011;61978;52.742;16.962;2022-09-14T02:14:11;57.53;;;26.87;;
73678;SDS011;61978;52.742;16.962;2022-09-14T02:16:38;46.88;;;25.80;;
73678;SDS011;61978;52.742;16.962;2022-09-14T02:19:06;51.15;;;24.05;;
73678;SDS011;61978;52.742;16.962;2022-09-14T02:21:33;46.00;;;24.02;;
73678;SDS011;61978;52.742;16.962;2022-09-14T02:23:59;55.08;;;25.90;;
73678;SDS011;61978;52.742;16.962;2022-09-14T02:26:26;51.42;;;24.85;;
73678;SDS011;61978;52.742;16.962;2022-09-14T02:28:54;52.03;;;24.67;;
73678;SDS011;61978;52.742;16.962;2022-09-14T02:31:33;48.10;;;23.50;;
73678;SDS011;61978;52.742;16.962;2022-09-14T02:42:13;44.03;;;22.85;;
73678;SDS011;61978;52.742;16.962;2022-09-14T02:47:54;40.70;;;21.35;;
73678;SDS011;61978;52.742;16.962;2022-09-14T02:53:24;48.15;;;22.62;;
73678;SDS011;61978;52.742;16.962;2022-09-14T02:55:54;48.75;;;23.75;;
73678;SDS011;61978;52.742;16.962;2022-09-14T02:58:28;50.67;;;23.87;;
73678;SDS011;61978;52.742;16.962;2022-09-14T03:01:00;45.33;;;21.75;;
73678;SDS011;61978;52.742;16.962;2022-09-14T03:03:29;41.73;;;21.87;;
73678;SDS011;61978;52.742;16.962;2022-09-14T03:05:55;41.18;;;22.00;;
73678;SDS011;61978;52.742;16.962;2022-09-14T03:08:23;54.13;;;22.58;;
73678;SDS011;61978;52.742;16.962;2022-09-14T03:10:50;40.65;;;21.25;;
73678;SDS011;61978;52.742;16.962;2022-09-14T03:13:17;43.58;;;20.97;;
73678;SDS011;61978;52.742;16.962;2022-09-14T03:15:44;49.63;;;21.85;;
73678;SDS011;61978;52.742;16.962;2022-09-14T03:18:10;43.23;;;20.25;;
73678;SDS011;61978;52.742;16.962;2022-09-14T03:20:37;40.43;;;21.70;;
73678;SDS011;61978;52.742;16.962;2022-09-14T03:23:04;39.73;;;20.48;;
73678;SDS011;61978;52.742;16.962;2022-09-14T03:25:36;37.75;;;20.23;;
73678;SDS011;61978;52.742;16.962;2022-09-14T03:28:04;44.08;;;21.80;;
73678;SDS011;61978;52.742;16.962;2022-09-14T03:30:32;41.90;;;19.50;;
73678;SDS011;61978;52.742;16.962;2022-09-14T03:32:59;39.80;;;19.42;;
73678;SDS011;61978;52.742;16.962;2022-09-14T03:35:27;38.63;;;19.60;;
73678;SDS011;61978;52.742;16.962;2022-09-14T03:37:56;32.53;;;17.82;;
73678;SDS011;61978;52.742;16.962;2022-09-14T03:40:24;35.88;;;18.17;;
73678;SDS011;61978;52.742;16.962;2022-09-14T03:42:51;39.53;;;18.92;;
73678;SDS011;61978;52.742;16.962;2022-09-14T03:45:19;42.85;;;20.12;;
73678;SDS011;61978;52.742;16.962;2022-09-14T03:47:46;32.70;;;17.52;;
73678;SDS011;61978;52.742;16.962;2022-09-14T03:50:13;40.23;;;18.27;;
73678;SDS011;61978;52.742;16.962;2022-09-14T03:52:41;32.23;;;18.12;;
73678;SDS011;61978;52.742;16.962;2022-09-14T03:55:08;29.50;;;16.70;;
73678;SDS011;61978;52.742;16.962;2022-09-14T03:57:35;30.40;;;16.35;;
73678;SDS011;61978;52.742;16.962;2022-09-14T04:00:03;29.80;;;16.07;;
73678;SDS011;61978;52.742;16.962;2022-09-14T04:02:33;30.97;;;16.02;;
73678;SDS011;61978;52.742;16.962;2022-09-14T04:04:59;26.48;;;15.40;;
73678;SDS011;61978;52.742;16.962;2022-09-14T04:07:26;29.87;;;15.18;;
73678;SDS011;61978;52.742;16.962;2022-09-14T04:09:52;33.88;;;14.68;;
73678;SDS011;61978;52.742;16.962;2022-09-14T04:12:19;38.30;;;16.10;;
73678;SDS011;61978;52.742;16.962;2022-09-14T04:14:45;37.88;;;16.52;;
73678;SDS011;61978;52.742;16.962;2022-09-14T04:17:12;26.62;;;16.02;;
73678;SDS011;61978;52.742;16.962;2022-09-14T04:19:38;28.90;;;15.68;;
73678;SDS011;61978;52.742;16.962;2022-09-14T04:22:06;26.12;;;14.85;;
73678;SDS011;61978;52.742;16.962;2022-09-14T04:24:34;27.58;;;15.30;;
73678;SDS011;61978;52.742;16.962;2022-09-14T04:27:01;25.20;;;14.30;;
73678;SDS011;61978;52.742;16.962;2022-09-14T04:29:27;26.48;;;13.75;;
73678;SDS011;61978;52.742;16.962;2022-09-14T04:31:55;26.95;;;14.00;;
73678;SDS011;61978;52.742;16.962;2022-09-14T04:34:21;31.95;;;14.15;;
73678;SDS011;61978;52.742;16.962;2022-09-14T04:36:48;32.80;;;14.53;;
73678;SDS011;61978;52.742;16.962;2022-09-14T04:39:14;28.10;;;12.93;;
73678;SDS011;61978;52.742;16.962;2022-09-14T04:41:41;30.95;;;14.70;;
73678;SDS011;61978;52.742;16.962;2022-09-14T04:44:08;26.68;;;13.22;;
73678;SDS011;61978;52.742;16.962;2022-09-14T04:46:36;23.15;;;13.18;;
73678;SDS011;61978;52.742;16.962;2022-09-14T04:49:04;30.12;;;13.65;;
73678;SDS011;61978;52.742;16.962;2022-09-14T04:51:32;29.50;;;12.58;;
73678;SDS011;61978;52.742;16.962;2022-09-14T04:54:00;27.70;;;13.32;;
73678;SDS011;61978;52.742;16.962;2022-09-14T04:56:31;25.08;;;12.88;;
73678;SDS011;61978;52.742;16.962;2022-09-14T04:58:59;25.45;;;12.58;;
73678;SDS011;61978;52.742;16.962;2022-09-14T05:01:30;26.05;;;11.30;;
73678;SDS011;61978;52.742;16.962;2022-09-14T05:03:58;20.77;;;11.22;;
73678;SDS011;61978;52.742;16.962;2022-09-14T05:06:26;22.02;;;11.30;;
73678;SDS011;61978;52.742;16.962;2022-09-14T05:08:55;21.15;;;10.58;;
73678;SDS011;61978;52.742;16.962;2022-09-14T05:11:25;20.23;;;10.15;;
73678;SDS011;61978;52.742;16.962;2022-09-14T05:13:54;22.67;;;10.23;;
73678;SDS011;61978;52.742;16.962;2022-09-14T05:16:23;18.77;;;9.68;;
73678;SDS011;61978;52.742;16.962;2022-09-14T05:18:59;15.40;;;8.35;;
73678;SDS011;61978;52.742;16.962;2022-09-14T05:21:27;17.23;;;7.95;;
73678;SDS011;61978;52.742;16.962;2022-09-14T05:23:57;11.78;;;7.78;;
73678;SDS011;61978;52.742;16.962;2022-09-14T05:26:25;17.00;;;7.83;;
73678;SDS011;61978;52.742;16.962;2022-09-14T05:28:54;9.83;;;6.42;;
73678;SDS011;61978;52.742;16.962;2022-09-14T05:31:22;12.33;;;7.22;;
73678;SDS011;61978;52.742;16.962;2022-09-14T05:33:50;23.00;;;8.55;;
73678;SDS011;61978;52.742;16.962;2022-09-14T05:36:17;15.80;;;7.45;;
73678;SDS011;61978;52.742;16.962;2022-09-14T05:38:44;10.43;;;6.08;;
73678;SDS011;61978;52.742;16.962;2022-09-14T05:41:11;14.53;;;5.03;;
73678;SDS011;61978;52.742;16.962;2022-09-14T05:43:39;11.48;;;5.05;;
73678;SDS011;61978;52.742;16.962;2022-09-14T05:46:06;12.43;;;5.03;;
73678;SDS011;61978;52.742;16.962;2022-09-14T05:48:35;8.53;;;4.10;;
73678;SDS011;61978;52.742;16.962;2022-09-14T05:51:04;10.38;;;4.22;;
73678;SDS011;61978;52.742;16.962;2022-09-14T05:53:32;9.08;;;3.83;;
73678;SDS011;61978;52.742;16.962;2022-09-14T05:56:01;9.00;;;3.50;;
73678;SDS011;61978;52.742;16.962;2022-09-14T05:58:35;14.83;;;4.00;;
73678;SDS011;61978;52.742;16.962;2022-09-14T06:01:09;6.65;;;3.22;;
73678;SDS011;61978;52.742;16.962;2022-09-14T06:03:37;7.78;;;3.65;;
73678;SDS011;61978;52.742;16.962;2022-09-14T06:06:05;6.10;;;2.65;;
73678;SDS011;61978;52.742;16.962;2022-09-14T06:08:33;7.53;;;3.25;;
73678;SDS011;61978;52.742;16.962;2022-09-14T06:11:04;13.53;;;3.02;;
73678;SDS011;61978;52.742;16.962;2022-09-14T06:13:32;6.70;;;2.70;;
73678;SDS011;61978;52.742;16.962;2022-09-14T06:16:00;7.35;;;2.87;;
73678;SDS011;61978;52.742;16.962;2022-09-14T06:18:31;7.75;;;3.55;;
73678;SDS011;61978;52.742;16.962;2022-09-14T06:20:59;9.05;;;3.15;;
73678;SDS011;61978;52.742;16.962;2022-09-14T06:23:26;7.08;;;3.00;;
73678;SDS011;61978;52.742;16.962;2022-09-14T06:25:54;9.25;;;3.42;;
73678;SDS011;61978;52.742;16.962;2022-09-14T06:28:21;12.73;;;2.90;;
73678;SDS011;61978;52.742;16.962;2022-09-14T06:30:49;8.45;;;2.67;;
73678;SDS011;61978;52.742;16.962;2022-09-14T06:33:16;7.35;;;2.22;;
73678;SDS011;61978;52.742;16.962;2022-09-14T06:35:52;5.85;;;2.22;;
73678;SDS011;61978;52.742;16.962;2022-09-14T06:38:25;6.28;;;2.47;;
73678;SDS011;61978;52.742;16.962;2022-09-14T06:40:53;10.32;;;3.20;;
73678;SDS011;61978;52.742;16.962;2022-09-14T06:43:24;6.33;;;2.40;;
73678;SDS011;61978;52.742;16.962;2022-09-14T06:45:56;6.95;;;2.30;;
73678;SDS011;61978;52.742;16.962;2022-09-14T06:48:26;9.28;;;2.70;;
73678;SDS011;61978;52.742;16.962;2022-09-14T06:51:09;8.73;;;2.62;;
73678;SDS011;61978;52.742;16.962;2022-09-14T06:53:39;7.45;;;2.42;;
73678;SDS011;61978;52.742;16.962;2022-09-14T06:56:05;6.37;;;2.27;;
73678;SDS011;61978;52.742;16.962;2022-09-14T06:58:32;6.22;;;2.15;;
73678;SDS011;61978;52.742;16.962;2022-09-14T07:01:00;10.65;;;2.72;;
73678;SDS011;61978;52.742;16.962;2022-09-14T07:03:27;9.35;;;2.37;;
73678;SDS011;61978;52.742;16.962;2022-09-14T07:06:06;7.75;;;2.42;;
73678;SDS011;61978;52.742;16.962;2022-09-14T07:08:35;10.43;;;2.20;;
73678;SDS011;61978;52.742;16.962;2022-09-14T07:11:03;6.70;;;2.00;;
73678;SDS011;61978;52.742;16.962;2022-09-14T07:13:31;9.73;;;2.00;;
73678;SDS011;61978;52.742;16.962;2022-09-14T07:15:57;8.75;;;1.92;;
73678;SDS011;61978;52.742;16.962;2022-09-14T07:18:24;6.00;;;2.45;;
73678;SDS011;61978;52.742;16.962;2022-09-14T07:21:00;5.30;;;2.30;;
73678;SDS011;61978;52.742;16.962;2022-09-14T07:23:32;8.70;;;2.52;;
73678;SDS011;61978;52.742;16.962;2022-09-14T07:26:08;6.95;;;1.92;;
73678;SDS011;61978;52.742;16.962;2022-09-14T07:28:36;11.38;;;2.00;;
73678;SDS011;61978;52.742;16.962;2022-09-14T07:31:04;8.00;;;2.50;;
73678;SDS011;61978;52.742;16.962;2022-09-14T07:33:33;5.83;;;1.72;;
73678;SDS011;61978;52.742;16.962;2022-09-14T07:36:08;7.83;;;2.17;;
73678;SDS011;61978;52.742;16.962;2022-09-14T07:38:36;5.67;;;2.22;;
73678;SDS011;61978;52.742;16.962;2022-09-14T07:41:06;6.10;;;1.52;;
73678;SDS011;61978;52.742;16.962;2022-09-14T07:46:32;14.40;;;2.37;;
73678;SDS011;61978;52.742;16.962;2022-09-14T07:49:13;7.45;;;1.95;;
73678;SDS011;61978;52.742;16.962;2022-09-14T07:51:49;9.88;;;1.80;;
73678;SDS011;61978;52.742;16.962;2022-09-14T07:54:23;7.00;;;1.80;;
73678;SDS011;61978;52.742;16.962;2022-09-14T07:56:54;6.95;;;1.90;;
73678;SDS011;61978;52.742;16.962;2022-09-14T07:59:25;4.47;;;1.60;;
73678;SDS011;61978;52.742;16.962;2022-09-14T08:01:53;14.25;;;2.10;;
73678;SDS011;61978;52.742;16.962;2022-09-14T08:04:19;6.75;;;1.50;;
73678;SDS011;61978;52.742;16.962;2022-09-14T08:06:51;6.78;;;1.77;;
73678;SDS011;61978;52.742;16.962;2022-09-14T08:09:20;5.45;;;1.70;;
73678;SDS011;61978;52.742;16.962;2022-09-14T08:11:46;10.18;;;1.75;;
73678;SDS011;61978;52.742;16.962;2022-09-14T08:14:12;8.95;;;1.70;;
73678;SDS011;61978;52.742;16.962;2022-09-14T08:16:39;8.43;;;1.17;;
73678;SDS011;61978;52.742;16.962;2022-09-14T08:19:10;6.22;;;1.90;;
73678;SDS011;61978;52.742;16.962;2022-09-14T08:21:40;6.25;;;1.25;;
73678;SDS011;61978;52.742;16.962;2022-09-14T08:24:06;11.00;;;1.92;;
73678;SDS011;61978;52.742;16.962;2022-09-14T08:26:33;4.00;;;1.15;;
73678;SDS011;61978;52.742;16.962;2022-09-14T08:29:01;8.03;;;1.20;;
73678;SDS011;61978;52.742;16.962;2022-09-14T08:31:30;4.72;;;1.55;;
73678;SDS011;61978;52.742;16.962;2022-09-14T08:33:59;3.62;;;1.15;;
73678;SDS011;61978;52.742;16.962;2022-09-14T08:36:31;5.58;;;1.20;;
73678;SDS011;61978;52.742;16.962;2022-09-14T08:39:01;7.75;;;1.35;;
73678;SDS011;61978;52.742;16.962;2022-09-14T08:44:30;8.35;;;1.47;;
73678;SDS011;61978;52.742;16.962;2022-09-14T08:47:03;10.98;;;1.50;;
73678;SDS011;61978;52.742;16.962;2022-09-14T08:52:04;9.68;;;1.17;;
73678;SDS011;61978;52.742;16.962;2022-09-14T08:54:31;8.15;;;1.32;;
73678;SDS011;61978;52.742;16.962;2022-09-14T08:57:11;6.15;;;1.10;;
73678;SDS011;61978;52.742;16.962;2022-09-14T08:59:45;5.72;;;1.07;;
73678;SDS011;61978;52.742;16.962;2022-09-14T09:02:22;8.93;;;1.20;;
73678;SDS011;61978;52.742;16.962;2022-09-14T09:04:57;8.55;;;1.42;;
73678;SDS011;61978;52.742;16.962;2022-09-14T09:10:01;3.87;;;0.90;;
73678;SDS011;61978;52.742;16.962;2022-09-14T09:12:41;5.60;;;1.32;;
73678;SDS011;61978;52.742;16.962;2022-09-14T09:17:45;6.87;;;1.10;;
73678;SDS011;61978;52.742;16.962;2022-09-14T09:20:25;5.75;;;0.85;;
73678;SDS011;61978;52.742;16.962;2022-09-14T09:23:36;4.10;;;1.10;;
73678;SDS011;61978;52.742;16.962;2022-09-14T09:25:52;7.65;;;1.20;;
73678;SDS011;61978;52.742;16.962;2022-09-14T09:28:33;4.85;;;1.20;;
73678;SDS011;61978;52.742;16.962;2022-09-14T09:31:14;2.67;;;0.78;;
73678;SDS011;61978;52.742;16.962;2022-09-14T09:34:02;3.12;;;0.60;;
73678;SDS011;61978;52.742;16.962;2022-09-14T09:36:32;6.83;;;1.35;;
73678;SDS011;61978;52.742;16.962;2022-09-14T09:39:03;7.87;;;1.23;;
73678;SDS011;61978;52.742;16.962;2022-09-14T09:41:33;3.87;;;0.90;;
73678;SDS011;61978;52.742;16.962;2022-09-14T09:44:13;5.67;;;1.02;;
73678;SDS011;61978;52.742;16.962;2022-09-14T09:46:50;8.03;;;0.72;;
73678;SDS011;61978;52.742;16.962;2022-09-14T09:49:32;6.17;;;0.98;;
73678;SDS011;61978;52.742;16.962;2022-09-14T09:52:17;2.22;;;0.60;;
73678;SDS011;61978;52.742;16.962;2022-09-14T10:07:22;3.50;;;1.00;;
73678;SDS011;61978;52.742;16.962;2022-09-14T10:28:52;2.65;;;0.85;;
73678;SDS011;61978;52.742;16.962;2022-09-14T10:31:58;1.60;;;0.93;;
73678;SDS011;61978;52.742;16.962;2022-09-14T10:34:27;8.80;;;0.85;;
73678;SDS011;61978;52.742;16.962;2022-09-14T10:46:08;6.12;;;1.20;;
73678;SDS011;61978;52.742;16.962;2022-09-14T10:53:53;7.37;;;1.45;;
73678;SDS011;61978;52.742;16.962;2022-09-14T10:56:24;3.83;;;0.98;;
73678;SDS011;61978;52.742;16.962;2022-09-14T11:08:05;4.58;;;1.30;;
73678;SDS011;61978;52.742;16.962;2022-09-14T11:16:21;5.33;;;1.20;;
73678;SDS011;61978;52.742;16.962;2022-09-14T11:21:39;3.77;;;1.07;;
73678;SDS011;61978;52.742;16.962;2022-09-14T11:52:03;4.00;;;1.17;;
73678;SDS011;61978;52.742;16.962;2022-09-14T11:54:30;6.40;;;1.77;;
73678;SDS011;61978;52.742;16.962;2022-09-14T11:57:00;4.53;;;1.00;;
73678;SDS011;61978;52.742;16.962;2022-09-14T12:00:04;3.15;;;1.10;;
73678;SDS011;61978;52.742;16.962;2022-09-14T12:32:25;5.10;;;1.17;;
73678;SDS011;61978;52.742;16.962;2022-09-14T12:44:34;5.67;;;1.45;;
73678;SDS011;61978;52.742;16.962;2022-09-14T13:05:32;6.25;;;1.70;;
73678;SDS011;61978;52.742;16.962;2022-09-14T13:11:21;5.40;;;1.60;;
73678;SDS011;61978;52.742;16.962;2022-09-14T13:13:54;5.05;;;1.35;;
73678;SDS011;61978;52.742;16.962;2022-09-14T13:31:30;5.30;;;1.57;;
73678;SDS011;61978;52.742;16.962;2022-09-14T13:34:02;8.00;;;1.70;;
73678;SDS011;61978;52.742;16.962;2022-09-14T13:36:42;6.85;;;1.77;;
73678;SDS011;61978;52.742;16.962;2022-09-14T13:42:00;6.83;;;1.75;;
73678;SDS011;61978;52.742;16.962;2022-09-14T13:47:36;6.72;;;1.67;;
73678;SDS011;61978;52.742;16.962;2022-09-14T13:50:05;8.98;;;2.00;;
73678;SDS011;61978;52.742;16.962;2022-09-14T13:52:34;12.30;;;1.80;;
73678;SDS011;61978;52.742;16.962;2022-09-14T14:12:44;7.42;;;1.90;;
73678;SDS011;61978;52.742;16.962;2022-09-14T14:30:11;5.33;;;1.60;;
73678;SDS011;61978;52.742;16.962;2022-09-14T14:39:22;6.72;;;1.70;;
73678;SDS011;61978;52.742;16.962;2022-09-14T14:54:08;3.95;;;1.57;;
73678;SDS011;61978;52.742;16.962;2022-09-14T14:59:50;3.90;;;1.35;;
73678;SDS011;61978;52.742;16.962;2022-09-14T15:02:17;6.62;;;1.65;;
73678;SDS011;61978;52.742;16.962;2022-09-14T15:04:44;9.30;;;1.70;;
73678;SDS011;61978;52.742;16.962;2022-09-14T15:07:10;5.40;;;1.37;;
73678;SDS011;61978;52.742;16.962;2022-09-14T15:21:16;7.62;;;1.52;;
73678;SDS011;61978;52.742;16.962;2022-09-14T15:23:43;11.97;;;1.80;;
73678;SDS011;61978;52.742;16.962;2022-09-14T15:26:10;6.55;;;1.60;;
73678;SDS011;61978;52.742;16.962;2022-09-14T15:28:48;5.28;;;1.87;;
73678;SDS011;61978;52.742;16.962;2022-09-14T15:40:21;7.60;;;1.30;;
73678;SDS011;61978;52.742;16.962;2022-09-14T15:49:06;8.08;;;1.98;;
73678;SDS011;61978;52.742;16.962;2022-09-14T15:51:36;7.53;;;1.42;;
73678;SDS011;61978;52.742;16.962;2022-09-14T15:56:52;6.97;;;1.52;;
73678;SDS011;61978;52.742;16.962;2022-09-14T16:13:27;6.72;;;1.40;;
73678;SDS011;61978;52.742;16.962;2022-09-14T16:16:04;7.03;;;1.72;;
73678;SDS011;61978;52.742;16.962;2022-09-14T16:31:04;8.93;;;2.40;;
73678;SDS011;61978;52.742;16.962;2022-09-14T16:33:41;5.65;;;2.00;;
73678;SDS011;61978;52.742;16.962;2022-09-14T16:39:21;4.45;;;1.92;;
73678;SDS011;61978;52.742;16.962;2022-09-14T16:44:56;7.12;;;1.77;;
73678;SDS011;61978;52.742;16.962;2022-09-14T16:53:32;4.58;;;1.70;;
73678;SDS011;61978;52.742;16.962;2022-09-14T16:56:07;13.72;;;3.98;;
73678;SDS011;61978;52.742;16.962;2022-09-14T16:58:37;16.42;;;5.60;;
73678;SDS011;61978;52.742;16.962;2022-09-14T17:12:25;8.00;;;2.27;;
73678;SDS011;61978;52.742;16.962;2022-09-14T17:15:08;7.47;;;1.90;;
73678;SDS011;61978;52.742;16.962;2022-09-14T17:20:40;10.32;;;2.58;;
73678;SDS011;61978;52.742;16.962;2022-09-14T17:39:19;11.38;;;2.50;;
73678;SDS011;61978;52.742;16.962;2022-09-14T17:41:54;15.48;;;2.30;;
73678;SDS011;61978;52.742;16.962;2022-09-14T17:50:10;6.87;;;2.17;;
73678;SDS011;61978;52.742;16.962;2022-09-14T17:52:37;12.33;;;2.60;;
73678;SDS011;61978;52.742;16.962;2022-09-14T18:00:30;5.87;;;2.83;;
73678;SDS011;61978;52.742;16.962;2022-09-14T18:03:13;8.43;;;2.70;;
73678;SDS011;61978;52.742;16.962;2022-09-14T18:05:39;9.43;;;2.87;;
73678;SDS011;61978;52.742;16.962;2022-09-14T18:08:19;11.40;;;3.70;;
73678;SDS011;61978;52.742;16.962;2022-09-14T18:10:47;14.60;;;4.10;;
73678;SDS011;61978;52.742;16.962;2022-09-14T18:25:38;19.32;;;4.28;;
73678;SDS011;61978;52.742;16.962;2022-09-14T18:28:08;11.88;;;3.72;;
73678;SDS011;61978;52.742;16.962;2022-09-14T18:30:43;12.58;;;4.97;;
73678;SDS011;61978;52.742;16.962;2022-09-14T18:33:10;12.95;;;4.95;;
73678;SDS011;61978;52.742;16.962;2022-09-14T18:41:51;9.60;;;3.83;;
73678;SDS011;61978;52.742;16.962;2022-09-14T18:44:27;10.95;;;4.65;;
73678;SDS011;61978;52.742;16.962;2022-09-14T18:49:55;38.85;;;15.88;;
73678;SDS011;61978;52.742;16.962;2022-09-14T19:01:41;8.13;;;3.33;;
73678;SDS011;61978;52.742;16.962;2022-09-14T19:04:09;9.13;;;3.30;;
73678;SDS011;61978;52.742;16.962;2022-09-14T19:06:39;8.03;;;3.60;;
73678;SDS011;61978;52.742;16.962;2022-09-14T19:15:37;11.65;;;4.75;;
73678;SDS011;61978;52.742;16.962;2022-09-14T19:21:14;17.07;;;7.45;;
73678;SDS011;61978;52.742;16.962;2022-09-14T19:23:43;19.90;;;8.68;;
73678;SDS011;61978;52.742;16.962;2022-09-14T19:31:50;19.85;;;10.30;;
73678;SDS011;61978;52.742;16.962;2022-09-14T19:34:24;19.15;;;10.15;;
73678;SDS011;61978;52.742;16.962;2022-09-14T19:36:54;20.85;;;10.30;;
73678;SDS011;61978;52.742;16.962;2022-09-14T19:39:23;15.65;;;7.78;;
73678;SDS011;61978;52.742;16.962;2022-09-14T19:44:56;12.90;;;6.33;;
73678;SDS011;61978;52.742;16.962;2022-09-14T19:50:52;17.00;;;7.67;;
73678;SDS011;61978;52.742;16.962;2022-09-14T19:53:28;13.08;;;5.40;;
73678;SDS011;61978;52.742;16.962;2022-09-14T19:56:05;15.90;;;9.30;;
73678;SDS011;61978;52.742;16.962;2022-09-14T20:01:19;21.45;;;10.05;;
73678;SDS011;61978;52.742;16.962;2022-09-14T20:03:48;16.85;;;10.63;;
73678;SDS011;61978;52.742;16.962;2022-09-14T20:09:06;16.75;;;4.45;;
73678;SDS011;61978;52.742;16.962;2022-09-14T20:15:16;11.20;;;3.67;;
73678;SDS011;61978;52.742;16.962;2022-09-14T20:23:28;10.70;;;2.92;;
73678;SDS011;61978;52.742;16.962;2022-09-14T20:25:57;8.15;;;3.20;;
73678;SDS011;61978;52.742;16.962;2022-09-14T20:28:29;14.05;;;3.35;;
73678;SDS011;61978;52.742;16.962;2022-09-14T20:30:58;8.60;;;2.92;;
73678;SDS011;61978;52.742;16.962;2022-09-14T20:36:31;9.58;;;3.62;;
73678;SDS011;61978;52.742;16.962;2022-09-14T20:42:59;16.02;;;6.67;;
73678;SDS011;61978;52.742;16.962;2022-09-14T20:48:27;13.28;;;3.98;;
73678;SDS011;61978;52.742;16.962;2022-09-14T20:50:55;13.60;;;3.85;;
73678;SDS011;61978;52.742;16.962;2022-09-14T20:56:28;7.97;;;3.42;;
73678;SDS011;61978;52.742;16.962;2022-09-14T21:02:25;11.90;;;3.67;;
73678;SDS011;61978;52.742;16.962;2022-09-14T21:04:52;13.55;;;3.85;;
73678;SDS011;61978;52.742;16.962;2022-09-14T21:39:27;11.20;;;3.42;;
73678;SDS011;61978;52.742;16.962;2022-09-14T21:44:37;15.18;;;3.80;;
73678;SDS011;61978;52.742;16.962;2022-09-14T21:50:33;14.28;;;3.95;;
73678;SDS011;61978;52.742;16.962;2022-09-14T21:53:02;14.03;;;3.90;;
73678;SDS011;61978;52.742;16.962;2022-09-14T21:55:30;7.47;;;3.20;;
73678;SDS011;61978;52.742;16.962;2022-09-14T22:07:07;13.32;;;4.12;;
73678;SDS011;61978;52.742;16.962;2022-09-14T22:09:34;10.13;;;3.92;;
73678;SDS011;61978;52.742;16.962;2022-09-14T22:12:02;14.13;;;4.67;;
73678;SDS011;61978;52.742;16.962;2022-09-14T22:17:17;14.65;;;3.98;;
73678;SDS011;61978;52.742;16.962;2022-09-14T22:26:41;11.40;;;4.17;;
73678;SDS011;61978;52.742;16.962;2022-09-14T22:34:26;11.97;;;4.20;;
73678;SDS011;61978;52.742;16.962;2022-09-14T22:52:30;16.87;;;4.17;;
73678;SDS011;61978;52.742;16.962;2022-09-14T22:55:12;11.75;;;4.10;;
73678;SDS011;61978;52.742;16.962;2022-09-14T22:57:40;16.60;;;4.75;;
73678;SDS011;61978;52.742;16.962;2022-09-14T23:08:26;11.28;;;4.10;;
73678;SDS011;61978;52.742;16.962;2022-09-14T23:20:28;12.13;;;4.70;;
73678;SDS011;61978;52.742;16.962;2022-09-14T23:22:54;8.33;;;4.10;;
73678;SDS011;61978;52.742;16.962;2022-09-14T23:25:22;9.65;;;4.35;;
73678;SDS011;61978;52.742;16.962;2022-09-14T23:27:53;13.58;;;4.37;;
73678;SDS011;61978;52.742;16.962;2022-09-14T23:30:21;14.25;;;4.15;;
73678;SDS011;61978;52.742;16.962;2022-09-14T23:39:09;16.62;;;4.45;;
73678;SDS011;61978;52.742;16.962;2022-09-14T23:41:35;13.88;;;4.08;;
73678;SDS011;61978;52.742;16.962;2022-09-14T23:44:04;13.10;;;4.20;;
73678;SDS011;61978;52.742;16.962;2022-09-14T23:53:09;14.35;;;5.03;;
73678;SDS011;61978;52.742;16.962;2022-09-14T23:58:53;18.02;;;4.50;;
